createdAt,value
2019-03-24T00:01:43.702Z,13.07
2019-03-24T00:04:13.616Z,13.43
2019-03-24T00:06:43.504Z,13.20
2019-03-24T00:09:13.406Z,13.07
2019-03-24T00:11:43.333Z,13.43
2019-03-24T00:14:13.237Z,12.97
2019-03-24T00:16:43.157Z,13.03
2019-03-24T00:19:13.086Z,12.77
2019-03-24T00:21:43.458Z,11.60
2019-03-24T00:24:13.353Z,12.20
2019-03-24T00:26:43.339Z,11.43
2019-03-24T00:29:13.322Z,11.00
2019-03-24T00:31:43.194Z,12.20
2019-03-24T00:34:13.107Z,11.70
2019-03-24T00:36:43.059Z,11.30
2019-03-24T00:39:13.018Z,11.10
2019-03-24T00:41:42.930Z,10.47
2019-03-24T00:44:12.785Z,10.97
2019-03-24T00:46:42.825Z,10.97
2019-03-24T00:49:12.752Z,11.00
2019-03-24T00:51:42.646Z,10.70
2019-03-24T00:54:12.552Z,10.23
2019-03-24T00:56:42.469Z,10.47
2019-03-24T00:59:12.339Z,10.70
2019-03-24T01:01:42.224Z,10.23
2019-03-24T01:04:12.137Z,10.00
2019-03-24T01:06:42.001Z,10.60
2019-03-24T01:09:11.913Z,10.67
2019-03-24T01:11:41.999Z,11.43
2019-03-24T01:14:11.904Z,10.50
2019-03-24T01:16:41.850Z,10.93
2019-03-24T01:19:11.739Z,10.30
2019-03-24T01:21:41.636Z,10.73
2019-03-24T01:24:11.496Z,11.00
2019-03-24T01:26:41.396Z,10.67
2019-03-24T01:29:11.291Z,10.17
2019-03-24T01:31:41.206Z,10.97
2019-03-24T01:34:11.227Z,11.37
2019-03-24T01:36:41.100Z,10.93
2019-03-24T01:39:11.006Z,10.57
2019-03-24T01:41:40.897Z,11.60
2019-03-24T01:44:10.822Z,11.90
2019-03-24T01:46:40.705Z,11.63
2019-03-24T01:49:10.639Z,11.20
2019-03-24T01:51:40.691Z,10.90
2019-03-24T01:54:10.578Z,10.87
2019-03-24T01:56:40.479Z,10.37
2019-03-24T01:59:10.372Z,11.63
2019-03-24T02:01:40.252Z,11.73
2019-03-24T02:04:10.160Z,11.47
2019-03-24T02:06:40.084Z,10.33
2019-03-24T02:09:10.742Z,10.40
2019-03-24T02:11:40.624Z,10.20
2019-03-24T02:14:10.509Z,10.57
2019-03-24T02:16:40.412Z,10.70
2019-03-24T02:19:10.308Z,9.97
2019-03-24T02:21:40.195Z,10.70
2019-03-24T02:24:10.209Z,10.03
2019-03-24T02:26:40.099Z,9.87
2019-03-24T02:29:09.997Z,10.17
2019-03-24T02:31:39.903Z,10.23
2019-03-24T02:34:09.873Z,10.27
2019-03-24T02:36:39.738Z,9.57
2019-03-24T02:39:09.675Z,9.57
2019-03-24T02:41:39.657Z,10.07
2019-03-24T02:44:09.562Z,10.33
2019-03-24T02:46:39.473Z,10.70
2019-03-24T02:49:09.389Z,10.90
2019-03-24T02:51:39.305Z,10.93
2019-03-24T02:54:09.216Z,10.60
2019-03-24T02:56:39.111Z,11.73
2019-03-24T02:59:09.221Z,11.17
2019-03-24T03:01:39.145Z,10.70
2019-03-24T03:04:09.034Z,11.30
2019-03-24T03:06:38.895Z,10.80
2019-03-24T03:09:08.935Z,11.13
2019-03-24T03:11:38.915Z,10.70
2019-03-24T03:14:08.885Z,10.87
2019-03-24T03:16:39.443Z,10.87
2019-03-24T03:19:09.514Z,10.83
2019-03-24T03:21:39.522Z,11.37
2019-03-24T03:24:09.412Z,11.83
2019-03-24T03:26:39.308Z,12.23
2019-03-24T03:29:09.281Z,12.37
2019-03-24T03:31:39.274Z,12.03
2019-03-24T03:34:09.211Z,12.17
2019-03-24T03:36:39.108Z,11.77
2019-03-24T03:39:09.142Z,12.33
2019-03-24T03:41:39.728Z,12.27
2019-03-24T03:44:09.807Z,13.00
2019-03-24T03:46:51.898Z,18.07
2019-03-24T03:49:11.384Z,13.83
2019-03-24T03:51:41.261Z,13.40
2019-03-24T03:54:11.310Z,14.00
2019-03-24T03:56:41.170Z,13.97
2019-03-24T03:59:11.075Z,14.00
2019-03-24T04:01:41.327Z,13.97
2019-03-24T04:04:11.187Z,13.30
2019-03-24T04:06:41.080Z,14.77
2019-03-24T04:09:11.052Z,15.00
2019-03-24T04:11:40.933Z,13.90
2019-03-24T04:14:10.879Z,14.00
2019-03-24T04:16:40.795Z,14.73
2019-03-24T04:19:10.762Z,13.93
2019-03-24T04:21:40.675Z,13.70
2019-03-24T04:24:10.580Z,13.87
2019-03-24T04:26:40.470Z,14.50
2019-03-24T04:29:10.389Z,15.37
2019-03-24T04:31:40.361Z,15.10
2019-03-24T04:34:10.315Z,15.70
2019-03-24T04:36:40.216Z,14.60
2019-03-24T04:39:10.090Z,15.03
2019-03-24T04:41:39.991Z,15.23
2019-03-24T04:44:09.966Z,16.07
2019-03-24T04:46:39.881Z,16.03
2019-03-24T04:49:09.790Z,18.00
2019-03-24T04:51:39.731Z,17.37
2019-03-24T04:54:09.663Z,16.20
2019-03-24T04:56:39.577Z,16.20
2019-03-24T04:59:09.469Z,15.43
2019-03-24T05:01:39.353Z,16.03
2019-03-24T05:04:09.230Z,16.67
2019-03-24T05:06:39.614Z,17.07
2019-03-24T05:09:09.490Z,16.93
2019-03-24T05:11:39.553Z,17.77
2019-03-24T05:14:09.555Z,17.93
2019-03-24T05:16:39.465Z,18.30
2019-03-24T05:19:09.369Z,18.00
2019-03-24T05:21:39.282Z,18.60
2019-03-24T05:24:09.199Z,18.27
2019-03-24T05:26:39.141Z,17.23
2019-03-24T05:29:09.063Z,17.77
2019-03-24T05:31:38.951Z,17.60
2019-03-24T05:34:08.868Z,18.17
2019-03-24T05:36:38.746Z,19.47
2019-03-24T05:39:08.894Z,17.43
2019-03-24T05:41:38.844Z,17.67
2019-03-24T05:44:08.747Z,17.37
2019-03-24T05:46:38.612Z,17.60
2019-03-24T05:49:08.636Z,17.10
2019-03-24T05:51:38.515Z,17.23
2019-03-24T05:54:08.390Z,17.93
2019-03-24T05:56:38.300Z,17.77
2019-03-24T05:59:08.175Z,18.47
2019-03-24T06:01:38.096Z,19.20
2019-03-24T06:04:07.983Z,19.87
2019-03-24T06:06:37.907Z,18.27
2019-03-24T06:09:08.250Z,18.33
2019-03-24T06:11:38.177Z,18.03
2019-03-24T06:14:08.216Z,20.87
2019-03-24T06:16:38.127Z,20.17
2019-03-24T06:19:08.076Z,19.73
2019-03-24T06:21:37.992Z,22.40
2019-03-24T06:24:07.895Z,21.83
2019-03-24T06:26:37.882Z,22.70
2019-03-24T06:29:07.791Z,20.67
2019-03-24T06:31:37.707Z,20.83
2019-03-24T06:34:07.737Z,20.60
2019-03-24T06:36:37.685Z,20.97
2019-03-24T06:39:08.486Z,19.10
2019-03-24T06:41:38.404Z,19.40
2019-03-24T06:44:08.296Z,18.83
2019-03-24T06:46:38.199Z,17.87
2019-03-24T06:49:08.101Z,18.60
2019-03-24T06:51:38.061Z,19.07
2019-03-24T06:54:08.031Z,19.47
2019-03-24T06:56:37.923Z,22.90
2019-03-24T06:59:07.901Z,20.17
2019-03-24T07:01:40.619Z,19.27
2019-03-24T07:04:10.693Z,19.00
2019-03-24T07:06:40.635Z,18.00
2019-03-24T07:09:10.606Z,19.40
2019-03-24T07:11:40.612Z,19.60
2019-03-24T07:14:10.529Z,19.17
2019-03-24T07:16:40.455Z,18.40
2019-03-24T07:19:10.433Z,18.97
2019-03-24T07:21:40.379Z,19.00
2019-03-24T07:24:10.263Z,18.57
2019-03-24T07:26:40.142Z,17.77
2019-03-24T07:29:10.080Z,18.40
2019-03-24T07:31:40.000Z,19.47
2019-03-24T07:34:09.893Z,19.17
2019-03-24T07:36:39.814Z,19.70
2019-03-24T07:39:09.735Z,18.57
2019-03-24T07:41:39.640Z,20.23
2019-03-24T07:44:09.524Z,19.03
2019-03-24T07:46:39.435Z,18.50
2019-03-24T07:49:09.335Z,19.07
2019-03-24T07:51:39.231Z,18.43
2019-03-24T07:54:09.144Z,18.40
2019-03-24T07:56:39.521Z,17.53
2019-03-24T07:59:09.443Z,17.47
2019-03-24T08:01:39.479Z,17.07
2019-03-24T08:04:09.478Z,16.97
2019-03-24T08:06:39.392Z,17.73
2019-03-24T08:09:09.316Z,18.80
2019-03-24T08:11:39.231Z,19.85
2019-03-24T08:14:09.151Z,18.37
2019-03-24T08:16:39.100Z,18.03
2019-03-24T08:19:09.045Z,19.02
2019-03-24T08:21:39.046Z,19.45
2019-03-24T08:24:08.958Z,20.85
2019-03-24T08:26:38.861Z,18.52
2019-03-24T08:29:08.924Z,19.05
2019-03-24T08:31:38.822Z,19.30
2019-03-24T08:34:08.705Z,17.70
2019-03-24T08:36:38.668Z,18.95
2019-03-24T08:39:08.677Z,18.55
2019-03-24T08:41:38.835Z,20.85
2019-03-24T08:44:08.763Z,21.02
2019-03-24T08:46:38.666Z,18.57
2019-03-24T08:49:08.725Z,19.05
2019-03-24T08:51:38.652Z,21.95
2019-03-24T08:54:08.565Z,18.87
2019-03-24T08:56:38.480Z,19.10
2019-03-24T08:59:08.410Z,19.32
2019-03-24T09:01:38.336Z,19.77
2019-03-24T09:04:09.988Z,19.92
2019-03-24T09:06:39.919Z,18.75
2019-03-24T09:09:09.843Z,20.77
2019-03-24T09:11:39.751Z,18.90
2019-03-24T09:14:09.692Z,18.50
2019-03-24T09:16:39.624Z,17.82
2019-03-24T09:19:09.646Z,16.85
2019-03-24T09:21:39.542Z,16.80
2019-03-24T09:24:09.420Z,17.23
2019-03-24T09:26:39.331Z,16.73
2019-03-24T09:29:09.287Z,15.63
2019-03-24T09:31:39.172Z,16.27
2019-03-24T09:34:09.083Z,16.10
2019-03-24T09:36:38.993Z,15.95
2019-03-24T09:39:09.055Z,15.68
2019-03-24T09:41:39.072Z,15.48
2019-03-24T09:44:09.000Z,15.70
2019-03-24T09:46:39.976Z,16.65
2019-03-24T09:49:09.876Z,17.23
2019-03-24T09:51:39.792Z,16.12
2019-03-24T09:54:09.806Z,15.95
2019-03-24T09:56:39.751Z,15.28
2019-03-24T09:59:09.833Z,14.47
2019-03-24T10:01:39.726Z,14.07
2019-03-24T10:04:09.624Z,15.08
2019-03-24T10:06:39.792Z,15.13
2019-03-24T10:09:09.760Z,15.20
2019-03-24T10:11:39.637Z,16.45
2019-03-24T10:14:09.595Z,15.18
2019-03-24T10:16:40.038Z,15.68
2019-03-24T10:19:14.227Z,27.00
2019-03-24T10:21:41.777Z,14.95
2019-03-24T10:24:11.687Z,15.13
2019-03-24T10:26:41.643Z,15.18
2019-03-24T10:29:11.548Z,14.30
2019-03-24T10:31:42.700Z,14.83
2019-03-24T10:34:13.200Z,15.40
2019-03-24T10:36:43.109Z,14.95
2019-03-24T10:39:13.989Z,13.90
2019-03-24T10:41:45.114Z,14.55
2019-03-24T10:44:15.046Z,14.47
2019-03-24T10:46:44.985Z,13.78
2019-03-24T10:49:24.430Z,13.28
2019-03-24T10:51:47.503Z,13.22
2019-03-24T10:54:17.469Z,13.10
2019-03-24T10:56:47.447Z,12.82
2019-03-24T10:59:17.415Z,12.50
2019-03-24T11:01:47.377Z,12.37
2019-03-24T11:04:17.445Z,11.93
2019-03-24T11:06:47.429Z,12.78
2019-03-24T11:09:17.496Z,12.00
2019-03-24T11:11:47.500Z,12.15
2019-03-24T11:14:17.391Z,12.55
2019-03-24T11:16:47.776Z,14.00
2019-03-24T11:19:17.758Z,12.60
2019-03-24T11:21:48.985Z,11.45
2019-03-24T11:24:18.908Z,13.00
2019-03-24T11:26:48.828Z,11.78
2019-03-24T11:29:20.159Z,14.47
2019-03-24T11:31:52.585Z,12.53
2019-03-24T11:34:23.439Z,11.78
2019-03-24T11:36:54.168Z,11.15
2019-03-24T11:39:24.064Z,10.78
2019-03-24T11:41:54.071Z,12.18
2019-03-24T11:44:24.016Z,11.18
2019-03-24T11:46:54.539Z,11.18
2019-03-24T11:49:24.429Z,10.25
2019-03-24T11:51:54.777Z,11.05
2019-03-24T11:54:25.185Z,10.80
2019-03-24T11:56:55.377Z,11.00
2019-03-24T11:59:25.730Z,10.80
2019-03-24T12:01:56.780Z,11.00
2019-03-24T12:04:26.693Z,11.25
2019-03-24T12:06:56.679Z,10.80
2019-03-24T12:09:27.065Z,11.20
2019-03-24T12:11:57.085Z,11.18
2019-03-24T12:14:27.005Z,11.28
2019-03-24T12:16:56.901Z,10.93
2019-03-24T12:19:29.291Z,10.55
2019-03-24T12:21:59.671Z,10.18
2019-03-24T12:24:29.971Z,10.65
2019-03-24T12:27:00.245Z,11.18
2019-03-24T12:29:30.156Z,10.32
2019-03-24T12:32:00.334Z,10.13
2019-03-24T12:34:30.278Z,10.25
2019-03-24T12:37:00.276Z,11.03
2019-03-24T12:39:30.194Z,10.82
2019-03-24T12:42:00.387Z,10.55
2019-03-24T12:44:31.416Z,10.63
2019-03-24T12:47:01.448Z,10.48
2019-03-24T12:49:31.418Z,10.15
2019-03-24T12:52:01.340Z,9.90
2019-03-24T12:54:31.852Z,10.70
2019-03-24T12:57:02.283Z,10.75
2019-03-24T12:59:32.200Z,10.88
2019-03-24T13:02:02.146Z,10.65
2019-03-24T13:04:32.050Z,10.23
2019-03-24T13:07:01.994Z,9.78
2019-03-24T13:09:33.661Z,10.53
2019-03-24T13:12:04.634Z,10.88
2019-03-24T13:14:34.598Z,9.90
2019-03-24T13:17:04.529Z,9.60
2019-03-24T13:19:36.135Z,9.53
2019-03-24T13:22:06.209Z,9.17
2019-03-24T13:24:36.706Z,10.13
2019-03-24T13:27:06.618Z,10.53
2019-03-24T13:29:36.633Z,9.90
2019-03-24T13:32:06.549Z,9.70
2019-03-24T13:34:36.464Z,9.73
2019-03-24T13:37:06.410Z,9.43
2019-03-24T13:39:36.272Z,9.80
2019-03-24T13:42:06.229Z,9.17
2019-03-24T13:44:36.147Z,9.77
2019-03-24T13:47:06.044Z,9.97
2019-03-24T13:49:35.982Z,10.60
2019-03-24T13:52:05.881Z,9.73
2019-03-24T13:54:35.755Z,9.10
2019-03-24T13:57:05.637Z,9.97
2019-03-24T13:59:35.571Z,11.33
2019-03-24T14:02:05.816Z,9.37
2019-03-24T14:04:36.039Z,9.40
2019-03-24T14:07:06.050Z,10.00
2019-03-24T14:09:35.968Z,9.53
2019-03-24T14:12:05.994Z,9.60
2019-03-24T14:14:35.951Z,9.53
2019-03-24T14:17:05.855Z,9.07
2019-03-24T14:19:35.748Z,8.83
2019-03-24T14:22:05.984Z,9.13
2019-03-24T14:24:35.898Z,8.73
2019-03-24T14:27:05.824Z,9.37
2019-03-24T14:29:35.721Z,9.33
2019-03-24T14:32:05.694Z,9.03
2019-03-24T14:34:35.625Z,8.23
2019-03-24T14:37:05.676Z,9.13
2019-03-24T14:39:35.549Z,8.67
2019-03-24T14:42:05.580Z,9.03
2019-03-24T14:44:35.780Z,8.73
2019-03-24T14:47:05.818Z,8.60
2019-03-24T14:49:35.712Z,8.57
2019-03-24T14:52:05.633Z,9.43
2019-03-24T14:54:35.536Z,8.77
2019-03-24T14:57:05.567Z,8.37
2019-03-24T14:59:35.475Z,13.63
2019-03-24T15:02:06.401Z,9.70
2019-03-24T15:04:36.331Z,8.77
2019-03-24T15:07:06.223Z,9.03
2019-03-24T15:09:36.145Z,8.80
2019-03-24T15:12:06.415Z,9.10
2019-03-24T15:14:36.338Z,9.30
2019-03-24T15:17:06.437Z,8.73
2019-03-24T15:19:36.354Z,8.93
2019-03-24T15:22:06.278Z,8.73
2019-03-24T15:24:36.198Z,8.40
2019-03-24T15:27:06.125Z,9.30
2019-03-24T15:29:36.043Z,7.93
2019-03-24T15:32:05.972Z,8.70
2019-03-24T15:34:35.853Z,8.87
2019-03-24T15:37:05.915Z,9.03
2019-03-24T15:39:35.803Z,7.97
2019-03-24T15:42:05.783Z,8.57
2019-03-24T15:44:35.761Z,8.17
2019-03-24T15:47:05.805Z,8.13
2019-03-24T15:49:35.706Z,10.10
2019-03-24T15:52:05.692Z,8.03
2019-03-24T15:54:35.599Z,7.83
2019-03-24T15:57:05.461Z,7.80
2019-03-24T15:59:35.388Z,7.47
2019-03-24T16:02:05.311Z,9.43
2019-03-24T16:04:35.261Z,9.73
2019-03-24T16:07:05.238Z,10.03
2019-03-24T16:09:35.136Z,11.00
2019-03-24T16:12:05.039Z,10.00
2019-03-24T16:14:34.962Z,9.47
2019-03-24T16:17:04.995Z,10.77
2019-03-24T16:19:34.930Z,11.37
2019-03-24T16:22:04.888Z,12.57
2019-03-24T16:24:35.168Z,12.40
2019-03-24T16:27:05.047Z,13.73
2019-03-24T16:29:34.981Z,10.73
2019-03-24T16:32:04.963Z,11.63
2019-03-24T16:34:34.855Z,14.40
2019-03-24T16:37:04.744Z,11.90
2019-03-24T16:39:34.648Z,9.40
2019-03-24T16:42:04.535Z,10.83
2019-03-24T16:44:34.449Z,11.83
2019-03-24T16:47:04.368Z,14.97
2019-03-24T16:49:34.257Z,15.10
2019-03-24T16:52:04.211Z,15.60
2019-03-24T16:54:34.279Z,17.00
2019-03-24T16:57:04.517Z,17.13
2019-03-24T16:59:34.202Z,16.73
2019-03-24T17:02:04.110Z,14.73
2019-03-24T17:04:34.017Z,14.80
2019-03-24T17:07:04.054Z,16.13
2019-03-24T17:09:34.005Z,17.23
2019-03-24T17:12:03.928Z,17.63
2019-03-24T17:14:34.006Z,20.50
2019-03-24T17:17:03.942Z,22.40
2019-03-24T17:19:33.850Z,21.07
2019-03-24T17:22:03.783Z,12.90
2019-03-24T17:24:33.667Z,14.30
2019-03-24T17:27:03.568Z,13.30
2019-03-24T17:29:33.532Z,15.07
2019-03-24T17:32:03.480Z,12.63
2019-03-24T17:34:33.438Z,12.20
2019-03-24T17:37:03.481Z,12.60
2019-03-24T17:39:33.410Z,12.47
2019-03-24T17:42:03.407Z,18.30
2019-03-24T17:44:33.336Z,10.50
2019-03-24T17:47:03.370Z,9.70
2019-03-24T17:49:33.271Z,8.63
2019-03-24T17:52:03.272Z,8.87
2019-03-24T17:54:33.150Z,8.53
2019-03-24T17:57:03.140Z,7.70
2019-03-24T17:59:33.044Z,8.33
2019-03-24T18:02:10.055Z,8.13
2019-03-24T18:04:34.584Z,8.33
2019-03-24T18:07:04.535Z,9.17
2019-03-24T18:09:34.516Z,9.80
2019-03-24T18:12:04.446Z,9.43
2019-03-24T18:14:34.347Z,11.37
2019-03-24T18:17:06.151Z,9.17
2019-03-24T18:19:36.067Z,10.33
2019-03-24T18:22:11.586Z,9.43
2019-03-24T18:24:37.963Z,10.37
2019-03-24T18:27:07.855Z,10.70
2019-03-24T18:29:37.814Z,11.20
2019-03-24T18:32:07.836Z,11.87
2019-03-24T18:34:38.273Z,10.67
2019-03-24T18:37:08.302Z,10.67
2019-03-24T18:39:38.204Z,10.70
2019-03-24T18:42:10.394Z,9.27
2019-03-24T18:44:40.347Z,10.47
2019-03-24T18:47:10.310Z,10.17
2019-03-24T18:49:40.017Z,11.03
2019-03-24T18:52:22.348Z,10.43
2019-03-24T18:54:47.023Z,10.60
2019-03-24T18:57:18.092Z,10.93
2019-03-24T18:59:48.925Z,12.57
2019-03-24T19:02:18.829Z,14.07
2019-03-24T19:04:48.731Z,15.23
2019-03-24T19:07:18.635Z,17.23
2019-03-24T19:09:48.608Z,18.87
2019-03-24T19:12:18.484Z,19.17
2019-03-24T19:14:48.505Z,18.03
2019-03-24T19:17:18.454Z,20.50
2019-03-24T19:19:48.395Z,23.40
2019-03-24T19:22:18.363Z,26.87
2019-03-24T19:24:48.295Z,33.37
2019-03-24T19:27:18.205Z,34.73
2019-03-24T19:29:48.181Z,28.40
2019-03-24T19:32:18.149Z,30.93
2019-03-24T19:34:48.107Z,30.93
2019-03-24T19:37:18.472Z,33.20
2019-03-24T19:39:50.086Z,33.80
2019-03-24T19:42:20.058Z,32.90
2019-03-24T19:44:50.039Z,30.00
2019-03-24T19:47:19.968Z,31.33
2019-03-24T19:49:49.915Z,35.33
2019-03-24T19:52:19.861Z,33.97
2019-03-24T19:54:49.786Z,32.70
2019-03-24T19:57:19.676Z,29.07
2019-03-24T19:59:49.614Z,24.63
2019-03-24T20:02:19.599Z,27.63
2019-03-24T20:04:51.262Z,30.10
2019-03-24T20:07:21.187Z,30.03
2019-03-24T20:09:51.252Z,29.13
2019-03-24T20:12:21.447Z,31.07
2019-03-24T20:14:51.510Z,31.70
2019-03-24T20:17:22.646Z,31.60
2019-03-24T20:19:52.652Z,31.63
2019-03-24T20:22:22.684Z,33.37
2019-03-24T20:24:52.795Z,34.80
2019-03-24T20:27:22.738Z,34.20
2019-03-24T20:29:52.729Z,34.27
2019-03-24T20:32:22.658Z,35.13
2019-03-24T20:34:52.551Z,36.97
2019-03-24T20:37:22.614Z,38.40
2019-03-24T20:39:52.682Z,41.50
2019-03-24T20:42:22.598Z,40.90
2019-03-24T20:44:52.501Z,30.10
2019-03-24T20:47:24.432Z,36.40
2019-03-24T20:49:54.431Z,37.83
2019-03-24T20:52:24.485Z,39.90
2019-03-24T20:54:54.394Z,37.40
2019-03-24T20:57:24.337Z,35.03
2019-03-24T20:59:54.844Z,34.50
2019-03-24T21:02:24.749Z,34.53
2019-03-24T21:04:54.645Z,35.83
2019-03-24T21:07:24.519Z,37.83
2019-03-24T21:09:54.526Z,39.23
2019-03-24T21:12:24.449Z,39.30
2019-03-24T21:14:54.389Z,36.30
2019-03-24T21:17:24.318Z,16.10
2019-03-24T21:19:54.234Z,16.17
2019-03-24T21:22:24.196Z,19.97
2019-03-24T21:24:54.115Z,29.57
2019-03-24T21:27:24.053Z,25.67
2019-03-24T21:29:54.170Z,28.87
2019-03-24T21:32:24.080Z,27.97
2019-03-24T21:34:54.072Z,28.77
2019-03-24T21:37:24.103Z,28.13
2019-03-24T21:39:54.079Z,28.07
2019-03-24T21:42:23.996Z,29.97
2019-03-24T21:44:53.987Z,25.40
2019-03-24T21:47:24.131Z,25.30
2019-03-24T21:49:54.081Z,24.77
2019-03-24T21:52:24.006Z,24.10
2019-03-24T21:54:53.942Z,25.37
2019-03-24T21:57:24.318Z,22.80
2019-03-24T21:59:54.198Z,23.43
2019-03-24T22:02:24.534Z,21.70
2019-03-24T22:04:56.006Z,19.17
2019-03-24T22:07:26.047Z,20.03
2019-03-24T22:09:56.110Z,20.27
2019-03-24T22:12:26.087Z,19.53
2019-03-24T22:14:56.172Z,20.57
2019-03-24T22:17:26.111Z,20.37
2019-03-24T22:19:56.068Z,20.43
2019-03-24T22:22:26.023Z,20.10
2019-03-24T22:24:55.908Z,16.77
2019-03-24T22:27:25.861Z,15.33
2019-03-24T22:29:55.823Z,14.43
2019-03-24T22:32:25.754Z,13.87
2019-03-24T22:34:55.675Z,16.33
2019-03-24T22:37:25.632Z,15.63
2019-03-24T22:39:55.608Z,16.37
2019-03-24T22:42:25.505Z,16.13
2019-03-24T22:44:55.458Z,16.43
2019-03-24T22:47:25.395Z,17.50
2019-03-24T22:49:55.383Z,17.90
2019-03-24T22:52:25.355Z,18.30
2019-03-24T22:54:55.209Z,17.30
2019-03-24T22:57:25.108Z,17.63
2019-03-24T22:59:55.066Z,17.27
2019-03-24T23:02:25.004Z,19.30
2019-03-24T23:05:03.946Z,19.83
2019-03-24T23:07:47.917Z,21.53
2019-03-24T23:10:17.916Z,22.30
2019-03-24T23:12:47.934Z,24.63
2019-03-24T23:15:18.022Z,28.37
2019-03-24T23:17:47.937Z,28.43
2019-03-24T23:20:17.834Z,22.60
2019-03-24T23:22:47.751Z,25.20
2019-03-24T23:25:17.647Z,23.93
2019-03-24T23:27:47.583Z,23.87
2019-03-24T23:30:18.332Z,26.03
2019-03-24T23:32:48.378Z,26.03
2019-03-24T23:35:18.414Z,25.40
2019-03-24T23:37:48.271Z,24.73
2019-03-24T23:40:18.290Z,24.20
2019-03-24T23:42:48.199Z,22.50
2019-03-24T23:45:18.106Z,22.67
2019-03-24T23:47:48.039Z,20.87
2019-03-24T23:50:17.944Z,14.93
2019-03-24T23:52:47.976Z,21.70
2019-03-24T23:55:17.890Z,22.57
2019-03-24T23:57:47.784Z,23.77
